sensor_id;sensor_type;location;lat;lon;timestamp;pressure;altitude;pressure_sealevel;temperature;humidity
65756;BME280;69208;47.502;18.940;2023-08-12T00:00:00;98831.28;;;15.32;77.97
65756;BME280;69208;47.502;18.940;2023-08-12T00:01:10;98824.75;;;15.29;78.20
65756;BME280;69208;47.502;18.940;2023-08-12T00:02:13;98817.94;;;15.28;78.79
65756;BME280;69208;47.502;18.940;2023-08-12T00:03:16;98826.94;;;15.27;78.71
65756;BME280;69208;47.502;18.940;2023-08-12T00:04:18;98827.25;;;15.25;78.55
65756;BME280;69208;47.502;18.940;2023-08-12T00:05:21;98825.84;;;15.28;78.36
65756;BME280;69208;47.502;18.940;2023-08-12T00:06:24;98831.47;;;15.27;78.37
65756;BME280;69208;47.502;18.940;2023-08-12T00:07:27;98824.31;;;15.27;77.93
65756;BME280;69208;47.502;18.940;2023-08-12T00:08:30;98823.69;;;15.30;77.43
65756;BME280;69208;47.502;18.940;2023-08-12T00:09:33;98825.09;;;15.28;77.31
65756;BME280;69208;47.502;18.940;2023-08-12T00:10:36;98829.25;;;15.29;77.08
65756;BME280;69208;47.502;18.940;2023-08-12T00:11:39;98822.72;;;15.26;77.14
65756;BME280;69208;47.502;18.940;2023-08-12T00:12:42;98817.44;;;15.26;77.20
65756;BME280;69208;47.502;18.940;2023-08-12T00:13:45;98823.53;;;15.27;76.45
65756;BME280;69208;47.502;18.940;2023-08-12T00:14:48;98818.38;;;15.21;76.62
65756;BME280;69208;47.502;18.940;2023-08-12T00:15:51;98819.78;;;15.19;76.51
65756;BME280;69208;47.502;18.940;2023-08-12T00:16:54;98819.13;;;15.13;76.77
65756;BME280;69208;47.502;18.940;2023-08-12T00:17:57;98813.09;;;15.13;76.90
65756;BME280;69208;47.502;18.940;2023-08-12T00:19:00;98816.31;;;15.10;76.82
65756;BME280;69208;47.502;18.940;2023-08-12T00:20:04;98823.00;;;15.07;77.08
65756;BME280;69208;47.502;18.940;2023-08-12T00:21:13;98817.41;;;15.09;77.29
65756;BME280;69208;47.502;18.940;2023-08-12T00:22:16;98813.38;;;15.11;77.15
65756;BME280;69208;47.502;18.940;2023-08-12T00:23:18;98818.66;;;15.11;76.94
65756;BME280;69208;47.502;18.940;2023-08-12T00:24:21;98816.81;;;15.12;77.19
65756;BME280;69208;47.502;18.940;2023-08-12T00:25:23;98811.22;;;15.13;77.26
65756;BME280;69208;47.502;18.940;2023-08-12T00:26:26;98815.88;;;15.16;76.98
65756;BME280;69208;47.502;18.940;2023-08-12T00:27:29;98817.13;;;15.19;76.73
65756;BME280;69208;47.502;18.940;2023-08-12T00:28:33;98809.69;;;15.21;76.90
65756;BME280;69208;47.502;18.940;2023-08-12T00:29:36;98814.03;;;15.25;76.80
65756;BME280;69208;47.502;18.940;2023-08-12T00:30:38;98808.00;;;15.25;77.00
65756;BME280;69208;47.502;18.940;2023-08-12T00:31:41;98809.25;;;15.28;76.99
65756;BME280;69208;47.502;18.940;2023-08-12T00:32:44;98815.94;;;15.34;76.75
65756;BME280;69208;47.502;18.940;2023-08-12T00:33:46;98813.47;;;15.37;76.96
65756;BME280;69208;47.502;18.940;2023-08-12T00:34:49;98814.53;;;15.36;76.56
65756;BME280;69208;47.502;18.940;2023-08-12T00:35:52;98818.56;;;15.34;76.55
65756;BME280;69208;47.502;18.940;2023-08-12T00:36:55;98815.66;;;15.35;76.26
65756;BME280;69208;47.502;18.940;2023-08-12T00:37:57;98810.03;;;15.37;75.79
65756;BME280;69208;47.502;18.940;2023-08-12T00:39:00;98817.66;;;15.38;75.75
65756;BME280;69208;47.502;18.940;2023-08-12T00:40:04;98814.22;;;15.38;76.00
65756;BME280;69208;47.502;18.940;2023-08-12T00:41:07;98814.72;;;15.40;76.06
65756;BME280;69208;47.502;18.940;2023-08-12T00:42:10;98809.44;;;15.40;75.85
65756;BME280;69208;47.502;18.940;2023-08-12T00:43:12;98808.03;;;15.42;75.83
65756;BME280;69208;47.502;18.940;2023-08-12T00:44:15;98804.00;;;15.45;75.76
65756;BME280;69208;47.502;18.940;2023-08-12T00:45:18;98810.69;;;15.42;75.47
65756;BME280;69208;47.502;18.940;2023-08-12T00:46:21;98809.28;;;15.45;75.77
65756;BME280;69208;47.502;18.940;2023-08-12T00:47:24;98815.66;;;15.44;76.02
65756;BME280;69208;47.502;18.940;2023-08-12T00:48:27;98806.94;;;15.43;76.21
65756;BME280;69208;47.502;18.940;2023-08-12T00:49:31;98809.78;;;15.47;75.86
65756;BME280;69208;47.502;18.940;2023-08-12T00:50:36;98811.94;;;15.45;75.79
65756;BME280;69208;47.502;18.940;2023-08-12T00:51:41;98806.03;;;15.48;75.59
65756;BME280;69208;47.502;18.940;2023-08-12T00:52:44;98806.19;;;15.52;74.96
65756;BME280;69208;47.502;18.940;2023-08-12T00:53:47;98809.59;;;15.43;75.16
65756;BME280;69208;47.502;18.940;2023-08-12T00:54:52;98810.19;;;15.40;75.32
65756;BME280;69208;47.502;18.940;2023-08-12T00:55:55;98808.97;;;15.46;75.26
65756;BME280;69208;47.502;18.940;2023-08-12T00:56:58;98807.13;;;15.47;75.08
65756;BME280;69208;47.502;18.940;2023-08-12T00:58:02;98804.78;;;15.45;75.10
65756;BME280;69208;47.502;18.940;2023-08-12T00:59:07;98806.94;;;15.43;75.50
65756;BME280;69208;47.502;18.940;2023-08-12T01:00:11;98804.63;;;15.42;75.60
65756;BME280;69208;47.502;18.940;2023-08-12T01:01:15;98800.72;;;15.39;75.83
65756;BME280;69208;47.502;18.940;2023-08-12T01:02:17;98800.88;;;15.34;76.11
65756;BME280;69208;47.502;18.940;2023-08-12T01:03:21;98799.16;;;15.30;76.53
65756;BME280;69208;47.502;18.940;2023-08-12T01:04:24;98800.72;;;15.31;76.24
65756;BME280;69208;47.502;18.940;2023-08-12T01:05:27;98803.22;;;15.36;76.03
65756;BME280;69208;47.502;18.940;2023-08-12T01:06:30;98792.03;;;15.30;76.26
65756;BME280;69208;47.502;18.940;2023-08-12T01:07:33;98797.59;;;15.29;76.43
65756;BME280;69208;47.502;18.940;2023-08-12T01:08:36;98802.09;;;15.28;76.66
65756;BME280;69208;47.502;18.940;2023-08-12T01:09:38;98801.47;;;15.22;77.00
65756;BME280;69208;47.502;18.940;2023-08-12T01:10:45;98798.03;;;15.22;77.03
65756;BME280;69208;47.502;18.940;2023-08-12T01:11:57;98797.78;;;15.32;76.27
65756;BME280;69208;47.502;18.940;2023-08-12T01:13:29;98792.00;;;15.21;76.62
65756;BME280;69208;47.502;18.940;2023-08-12T01:14:51;98802.09;;;15.28;76.31
65756;BME280;69208;47.502;18.940;2023-08-12T01:15:58;98797.72;;;15.15;76.88
65756;BME280;69208;47.502;18.940;2023-08-12T01:17:05;98791.81;;;15.09;77.25
65756;BME280;69208;47.502;18.940;2023-08-12T01:18:10;98800.19;;;15.11;77.62
65756;BME280;69208;47.502;18.940;2023-08-12T01:19:32;98810.28;;;15.09;77.90
65756;BME280;69208;47.502;18.940;2023-08-12T01:20:36;98801.44;;;15.14;77.56
65756;BME280;69208;47.502;18.940;2023-08-12T01:21:43;98799.28;;;15.16;77.11
65756;BME280;69208;47.502;18.940;2023-08-12T01:22:46;98797.72;;;15.15;76.81
65756;BME280;69208;47.502;18.940;2023-08-12T01:23:50;98791.97;;;15.13;77.37
65756;BME280;69208;47.502;18.940;2023-08-12T01:24:53;98796.59;;;15.07;77.79
65756;BME280;69208;47.502;18.940;2023-08-12T01:25:56;98803.87;;;15.01;78.77
65756;BME280;69208;47.502;18.940;2023-08-12T01:26:58;98804.47;;;14.98;78.97
65756;BME280;69208;47.502;18.940;2023-08-12T01:28:01;98803.41;;;14.99;79.71
65756;BME280;69208;47.502;18.940;2023-08-12T01:29:04;98803.41;;;14.99;80.11
65756;BME280;69208;47.502;18.940;2023-08-12T01:30:07;98800.75;;;14.99;80.28
65756;BME280;69208;47.502;18.940;2023-08-12T01:32:49;98808.38;;;15.01;80.92
65756;BME280;69208;47.502;18.940;2023-08-12T01:35:17;98819.72;;;15.01;81.22
65756;BME280;69208;47.502;18.940;2023-08-12T01:36:21;98808.09;;;15.02;80.47
65756;BME280;69208;47.502;18.940;2023-08-12T01:37:26;98805.44;;;15.02;79.98
65756;BME280;69208;47.502;18.940;2023-08-12T01:38:31;98811.16;;;14.96;79.60
65756;BME280;69208;47.502;18.940;2023-08-12T01:39:35;98812.87;;;15.00;79.08
65756;BME280;69208;47.502;18.940;2023-08-12T01:40:39;98802.94;;;14.97;78.94
65756;BME280;69208;47.502;18.940;2023-08-12T01:41:44;98808.66;;;14.99;78.34
65756;BME280;69208;47.502;18.940;2023-08-12T01:42:47;98805.88;;;14.96;77.98
65756;BME280;69208;47.502;18.940;2023-08-12T01:43:50;98810.84;;;14.97;77.62
65756;BME280;69208;47.502;18.940;2023-08-12T01:44:53;98809.16;;;15.01;77.41
65756;BME280;69208;47.502;18.940;2023-08-12T01:45:56;98810.84;;;14.97;77.90
65756;BME280;69208;47.502;18.940;2023-08-12T01:46:59;98811.87;;;14.88;78.16
65756;BME280;69208;47.502;18.940;2023-08-12T01:48:03;98814.22;;;14.89;78.17
65756;BME280;69208;47.502;18.940;2023-08-12T01:49:06;98806.94;;;14.86;78.32
65756;BME280;69208;47.502;18.940;2023-08-12T01:50:09;98810.78;;;14.80;78.61
65756;BME280;69208;47.502;18.940;2023-08-12T01:51:12;98813.41;;;14.80;78.41
65756;BME280;69208;47.502;18.940;2023-08-12T01:52:15;98809.34;;;14.74;78.61
65756;BME280;69208;47.502;18.940;2023-08-12T01:53:18;98805.19;;;14.82;78.35
65756;BME280;69208;47.502;18.940;2023-08-12T01:54:21;98802.94;;;14.66;78.69
65756;BME280;69208;47.502;18.940;2023-08-12T01:55:23;98805.56;;;14.66;78.68
65756;BME280;69208;47.502;18.940;2023-08-12T01:56:26;98800.91;;;14.63;78.90
65756;BME280;69208;47.502;18.940;2023-08-12T01:57:29;98799.38;;;14.62;79.34
65756;BME280;69208;47.502;18.940;2023-08-12T01:58:31;98802.28;;;14.61;79.32
65756;BME280;69208;47.502;18.940;2023-08-12T01:59:35;98805.75;;;14.70;78.90
65756;BME280;69208;47.502;18.940;2023-08-12T02:00:38;98801.94;;;14.76;78.54
65756;BME280;69208;47.502;18.940;2023-08-12T02:01:41;98799.41;;;14.71;78.42
65756;BME280;69208;47.502;18.940;2023-08-12T02:02:44;98805.47;;;14.71;78.95
65756;BME280;69208;47.502;18.940;2023-08-12T02:03:49;98805.75;;;14.70;79.46
65756;BME280;69208;47.502;18.940;2023-08-12T02:04:52;98801.41;;;14.65;80.33
65756;BME280;69208;47.502;18.940;2023-08-12T02:05:55;98802.47;;;14.64;80.68
65756;BME280;69208;47.502;18.940;2023-08-12T02:06:58;98795.03;;;14.66;80.12
65756;BME280;69208;47.502;18.940;2023-08-12T02:08:00;98798.16;;;14.68;80.38
65756;BME280;69208;47.502;18.940;2023-08-12T02:09:03;98795.19;;;14.70;80.17
65756;BME280;69208;47.502;18.940;2023-08-12T02:10:06;98800.47;;;14.70;80.37
65756;BME280;69208;47.502;18.940;2023-08-12T02:11:09;98807.94;;;14.68;80.57
65756;BME280;69208;47.502;18.940;2023-08-12T02:12:12;98805.00;;;14.78;80.03
65756;BME280;69208;47.502;18.940;2023-08-12T02:13:14;98803.63;;;14.81;79.31
65756;BME280;69208;47.502;18.940;2023-08-12T02:14:17;98806.09;;;14.77;79.24
65756;BME280;69208;47.502;18.940;2023-08-12T02:15:20;98806.59;;;14.79;79.67
65756;BME280;69208;47.502;18.940;2023-08-12T02:16:22;98800.22;;;14.80;79.90
65756;BME280;69208;47.502;18.940;2023-08-12T02:17:25;98808.00;;;14.85;79.67
65756;BME280;69208;47.502;18.940;2023-08-12T02:18:28;98805.50;;;14.80;79.95
65756;BME280;69208;47.502;18.940;2023-08-12T02:19:34;98805.19;;;14.82;79.94
65756;BME280;69208;47.502;18.940;2023-08-12T02:20:37;98807.00;;;14.72;80.63
65756;BME280;69208;47.502;18.940;2023-08-12T02:21:41;98800.91;;;14.63;81.53
65756;BME280;69208;47.502;18.940;2023-08-12T02:22:44;98803.53;;;14.63;81.53
65756;BME280;69208;47.502;18.940;2023-08-12T02:23:46;98801.28;;;14.70;81.25
65756;BME280;69208;47.502;18.940;2023-08-12T02:24:49;98797.53;;;14.71;80.91
65756;BME280;69208;47.502;18.940;2023-08-12T02:25:52;98805.63;;;14.75;80.78
65756;BME280;69208;47.502;18.940;2023-08-12T02:26:57;98797.09;;;14.78;80.14
65756;BME280;69208;47.502;18.940;2023-08-12T02:27:59;98805.78;;;14.78;80.14
65756;BME280;69208;47.502;18.940;2023-08-12T02:29:02;98797.75;;;14.84;79.66
65756;BME280;69208;47.502;18.940;2023-08-12T02:30:05;98801.94;;;14.76;80.71
65756;BME280;69208;47.502;18.940;2023-08-12T02:31:08;98799.88;;;14.73;80.31
65756;BME280;69208;47.502;18.940;2023-08-12T02:32:11;98801.31;;;14.79;80.37
65756;BME280;69208;47.502;18.940;2023-08-12T02:33:14;98803.63;;;14.81;80.10
65756;BME280;69208;47.502;18.940;2023-08-12T02:34:16;98805.78;;;14.78;80.31
65756;BME280;69208;47.502;18.940;2023-08-12T02:35:20;98804.25;;;14.77;80.50
65756;BME280;69208;47.502;18.940;2023-08-12T02:36:23;98801.31;;;14.79;80.32
65756;BME280;69208;47.502;18.940;2023-08-12T02:37:27;98799.75;;;14.78;80.14
65756;BME280;69208;47.502;18.940;2023-08-12T02:38:30;98796.81;;;14.79;80.16
65756;BME280;69208;47.502;18.940;2023-08-12T02:39:33;98801.16;;;14.84;80.07
65756;BME280;69208;47.502;18.940;2023-08-12T02:40:36;98801.31;;;14.79;80.69
65756;BME280;69208;47.502;18.940;2023-08-12T02:41:38;98802.38;;;14.78;80.65
65756;BME280;69208;47.502;18.940;2023-08-12T02:42:41;98799.56;;;14.74;80.47
65756;BME280;69208;47.502;18.940;2023-08-12T02:43:44;98795.06;;;14.75;80.81
65756;BME280;69208;47.502;18.940;2023-08-12T02:44:47;98794.78;;;14.76;81.04
65756;BME280;69208;47.502;18.940;2023-08-12T02:45:50;98797.41;;;14.76;80.98
65756;BME280;69208;47.502;18.940;2023-08-12T02:46:52;98803.16;;;14.78;80.74
65756;BME280;69208;47.502;18.940;2023-08-12T02:47:55;98793.25;;;14.84;80.72
65756;BME280;69208;47.502;18.940;2023-08-12T02:48:58;98792.31;;;14.80;80.66
65756;BME280;69208;47.502;18.940;2023-08-12T02:50:00;98801.16;;;14.84;80.68
65756;BME280;69208;47.502;18.940;2023-08-12T02:51:03;98798.34;;;14.81;80.54
65756;BME280;69208;47.502;18.940;2023-08-12T02:52:06;98799.28;;;14.76;80.36
65756;BME280;69208;47.502;18.940;2023-08-12T02:53:09;98788.41;;;14.77;80.25
65756;BME280;69208;47.502;18.940;2023-08-12T02:54:12;98796.03;;;14.79;79.81
65756;BME280;69208;47.502;18.940;2023-08-12T02:55:15;98791.69;;;14.83;80.44
65756;BME280;69208;47.502;18.940;2023-08-12T02:56:17;98789.69;;;14.80;80.67
65756;BME280;69208;47.502;18.940;2023-08-12T02:57:20;98798.22;;;14.86;81.72
65756;BME280;69208;47.502;18.940;2023-08-12T02:58:23;98801.47;;;14.83;82.31
65756;BME280;69208;47.502;18.940;2023-08-12T02:59:26;98793.25;;;14.84;81.83
65756;BME280;69208;47.502;18.940;2023-08-12T03:00:29;98794.03;;;14.85;81.74
65756;BME280;69208;47.502;18.940;2023-08-12T03:01:32;98792.97;;;14.86;82.31
65756;BME280;69208;47.502;18.940;2023-08-12T03:02:35;98797.28;;;14.82;82.96
65756;BME280;69208;47.502;18.940;2023-08-12T03:03:38;98798.34;;;14.81;82.92
65756;BME280;69208;47.502;18.940;2023-08-12T03:04:41;98800.72;;;14.82;83.75
65756;BME280;69208;47.502;18.940;2023-08-12T03:05:47;98796.81;;;14.79;82.99
65756;BME280;69208;47.502;18.940;2023-08-12T03:06:50;98798.81;;;14.74;83.34
65756;BME280;69208;47.502;18.940;2023-08-12T03:07:53;98792.44;;;14.75;83.22
65756;BME280;69208;47.502;18.940;2023-08-12T03:08:56;98797.59;;;14.80;83.37
65756;BME280;69208;47.502;18.940;2023-08-12T03:09:58;98799.28;;;14.76;83.30
65756;BME280;69208;47.502;18.940;2023-08-12T03:11:02;98795.72;;;14.81;83.53
65756;BME280;69208;47.502;18.940;2023-08-12T03:12:05;98792.19;;;14.85;82.99
65756;BME280;69208;47.502;18.940;2023-08-12T03:13:08;98799.00;;;14.86;82.81
65756;BME280;69208;47.502;18.940;2023-08-12T03:14:11;98798.88;;;14.91;82.61
65756;BME280;69208;47.502;18.940;2023-08-12T03:15:14;98785.97;;;14.90;82.83
65756;BME280;69208;47.502;18.940;2023-08-12T03:16:16;98796.50;;;14.81;83.39
65756;BME280;69208;47.502;18.940;2023-08-12T03:17:19;98798.97;;;14.77;83.77
65756;BME280;69208;47.502;18.940;2023-08-12T03:18:22;98791.66;;;14.74;83.42
65756;BME280;69208;47.502;18.940;2023-08-12T03:19:25;98795.44;;;14.82;83.18
65756;BME280;69208;47.502;18.940;2023-08-12T03:20:28;98799.75;;;14.78;83.22
65756;BME280;69208;47.502;18.940;2023-08-12T03:21:31;98797.09;;;14.78;83.31
65756;BME280;69208;47.502;18.940;2023-08-12T03:22:33;98801.59;;;14.77;82.64
65756;BME280;69208;47.502;18.940;2023-08-12T03:23:37;98799.09;;;14.72;83.25
65756;BME280;69208;47.502;18.940;2023-08-12T03:24:40;98803.00;;;14.75;83.16
65756;BME280;69208;47.502;18.940;2023-08-12T03:25:43;98800.66;;;14.73;82.83
65756;BME280;69208;47.502;18.940;2023-08-12T03:26:46;98800.84;;;14.77;83.13
65756;BME280;69208;47.502;18.940;2023-08-12T03:27:49;98796.78;;;14.71;83.49
65756;BME280;69208;47.502;18.940;2023-08-12T03:28:51;98793.72;;;14.55;84.19
65756;BME280;69208;47.502;18.940;2023-08-12T03:29:54;98799.72;;;14.47;84.00
65756;BME280;69208;47.502;18.940;2023-08-12T03:30:57;98806.38;;;14.44;84.54
65756;BME280;69208;47.502;18.940;2023-08-12T03:32:00;98799.31;;;14.53;83.63
65756;BME280;69208;47.502;18.940;2023-08-12T03:33:03;98806.75;;;14.51;83.65
65756;BME280;69208;47.502;18.940;2023-08-12T03:34:06;98803.66;;;14.58;83.65
65756;BME280;69208;47.502;18.940;2023-08-12T03:35:09;98804.94;;;14.61;83.64
65756;BME280;69208;47.502;18.940;2023-08-12T03:36:11;98801.69;;;14.64;83.03
65756;BME280;69208;47.502;18.940;2023-08-12T03:37:14;98798.88;;;14.60;83.26
65756;BME280;69208;47.502;18.940;2023-08-12T03:38:17;98800.47;;;14.61;82.75
65756;BME280;69208;47.502;18.940;2023-08-12T03:39:20;98808.47;;;14.56;83.20
65756;BME280;69208;47.502;18.940;2023-08-12T03:40:22;98801.03;;;14.58;82.96
65756;BME280;69208;47.502;18.940;2023-08-12T03:41:25;98804.16;;;14.60;83.00
65756;BME280;69208;47.502;18.940;2023-08-12T03:42:28;98805.91;;;14.65;82.35
65756;BME280;69208;47.502;18.940;2023-08-12T03:43:30;98808.38;;;14.70;81.78
65756;BME280;69208;47.502;18.940;2023-08-12T03:44:33;98807.59;;;14.69;81.96
65756;BME280;69208;47.502;18.940;2023-08-12T03:45:40;98810.72;;;14.71;82.11
65756;BME280;69208;47.502;18.940;2023-08-12T03:46:44;98812.00;;;14.74;82.09
65756;BME280;69208;47.502;18.940;2023-08-12T03:47:47;98802.69;;;14.76;81.88
65756;BME280;69208;47.502;18.940;2023-08-12T03:48:50;98810.41;;;14.73;82.30
65756;BME280;69208;47.502;18.940;2023-08-12T03:49:52;98811.81;;;14.70;82.08
65756;BME280;69208;47.502;18.940;2023-08-12T03:50:55;98815.06;;;14.67;82.70
65756;BME280;69208;47.502;18.940;2023-08-12T03:51:58;98813.19;;;14.68;82.94
65756;BME280;69208;47.502;18.940;2023-08-12T03:53:01;98819.37;;;14.63;83.31
65756;BME280;69208;47.502;18.940;2023-08-12T03:54:05;98819.09;;;14.65;82.10
65756;BME280;69208;47.502;18.940;2023-08-12T03:55:08;98816.62;;;14.68;81.83
65756;BME280;69208;47.502;18.940;2023-08-12T03:56:11;98815.69;;;14.73;81.92
65756;BME280;69208;47.502;18.940;2023-08-12T03:57:17;98813.69;;;14.78;81.56
65756;BME280;69208;47.502;18.940;2023-08-12T03:58:20;98816.78;;;14.72;82.40
65756;BME280;69208;47.502;18.940;2023-08-12T03:59:23;98812.16;;;14.77;81.76
65756;BME280;69208;47.502;18.940;2023-08-12T04:00:26;98816.34;;;14.78;81.77
65756;BME280;69208;47.502;18.940;2023-08-12T04:01:29;98816.06;;;14.80;81.90
65756;BME280;69208;47.502;18.940;2023-08-12T04:02:31;98815.94;;;14.85;81.48
65756;BME280;69208;47.502;18.940;2023-08-12T04:03:34;98812.03;;;14.83;81.13
65756;BME280;69208;47.502;18.940;2023-08-12T04:04:37;98816.69;;;14.86;81.22
65756;BME280;69208;47.502;18.940;2023-08-12T04:05:52;98823.03;;;14.85;82.21
65756;BME280;69208;47.502;18.940;2023-08-12T04:06:55;98819.50;;;14.89;81.84
65756;BME280;69208;47.502;18.940;2023-08-12T04:07:58;98819.34;;;14.86;81.82
65756;BME280;69208;47.502;18.940;2023-08-12T04:09:00;98813.75;;;14.87;81.77
65756;BME280;69208;47.502;18.940;2023-08-12T04:10:03;98823.69;;;14.90;81.85
65756;BME280;69208;47.502;18.940;2023-08-12T04:11:07;98821.69;;;14.96;81.37
65756;BME280;69208;47.502;18.940;2023-08-12T04:12:09;98819.22;;;14.99;81.28
65756;BME280;69208;47.502;18.940;2023-08-12T04:13:12;98826.69;;;14.97;81.27
65756;BME280;69208;47.502;18.940;2023-08-12T04:14:15;98832.72;;;14.98;80.93
65756;BME280;69208;47.502;18.940;2023-08-12T04:15:18;98821.56;;;15.01;81.24
65756;BME280;69208;47.502;18.940;2023-08-12T04:16:20;98833.53;;;15.07;80.95
65756;BME280;69208;47.502;18.940;2023-08-12T04:17:24;98823.62;;;15.13;80.73
65756;BME280;69208;47.502;18.940;2023-08-12T04:18:27;98820.69;;;15.14;80.49
65756;BME280;69208;47.502;18.940;2023-08-12T04:19:29;98817.28;;;15.22;80.51
65756;BME280;69208;47.502;18.940;2023-08-12T04:20:32;98823.22;;;15.28;80.18
65756;BME280;69208;47.502;18.940;2023-08-12T04:21:35;98823.22;;;15.28;80.20
65756;BME280;69208;47.502;18.940;2023-08-12T04:22:38;98824.31;;;15.27;80.12
65756;BME280;69208;47.502;18.940;2023-08-12T04:23:40;98823.22;;;15.28;80.31
65756;BME280;69208;47.502;18.940;2023-08-12T04:24:43;98826.63;;;15.29;80.17
65756;BME280;69208;47.502;18.940;2023-08-12T04:25:46;98829.28;;;15.37;79.88
65756;BME280;69208;47.502;18.940;2023-08-12T04:26:49;98836.16;;;15.38;79.95
65756;BME280;69208;47.502;18.940;2023-08-12T04:27:52;98829.13;;;15.34;80.30
65756;BME280;69208;47.502;18.940;2023-08-12T04:28:55;98831.94;;;15.37;79.68
65756;BME280;69208;47.502;18.940;2023-08-12T04:29:58;98834.13;;;15.35;79.77
65756;BME280;69208;47.502;18.940;2023-08-12T04:31:00;98836.59;;;15.40;79.78
65756;BME280;69208;47.502;18.940;2023-08-12T04:32:03;98840.84;;;15.50;79.63
65756;BME280;69208;47.502;18.940;2023-08-12T04:33:06;98832.91;;;15.50;79.68
65756;BME280;69208;47.502;18.940;2023-08-12T04:34:09;98839.59;;;15.47;80.13
65756;BME280;69208;47.502;18.940;2023-08-12T04:35:12;98838.00;;;15.46;80.79
65756;BME280;69208;47.502;18.940;2023-08-12T04:36:14;98845.31;;;15.50;80.48
65756;BME280;69208;47.502;18.940;2023-08-12T04:37:17;98834.94;;;15.53;79.81
65756;BME280;69208;47.502;18.940;2023-08-12T04:38:20;98835.72;;;15.54;80.20
65756;BME280;69208;47.502;18.940;2023-08-12T04:39:22;98835.56;;;15.50;79.83
65756;BME280;69208;47.502;18.940;2023-08-12T04:40:25;98838.97;;;15.51;80.14
65756;BME280;69208;47.502;18.940;2023-08-12T04:41:28;98833.97;;;15.49;80.10
65756;BME280;69208;47.502;18.940;2023-08-12T04:42:33;98838.66;;;15.52;79.78
65756;BME280;69208;47.502;18.940;2023-08-12T04:43:36;98842.87;;;15.62;79.42
65756;BME280;69208;47.502;18.940;2023-08-12T04:44:38;98839.44;;;15.61;79.75
65756;BME280;69208;47.502;18.940;2023-08-12T04:45:47;98843.34;;;15.64;79.97
65756;BME280;69208;47.502;18.940;2023-08-12T04:46:50;98855.66;;;15.68;80.06
65756;BME280;69208;47.502;18.940;2023-08-12T04:47:53;98850.63;;;15.67;79.98
65756;BME280;69208;47.502;18.940;2023-08-12T04:48:56;98849.75;;;15.72;80.34
65756;BME280;69208;47.502;18.940;2023-08-12T04:49:59;98836.84;;;15.70;80.45
65756;BME280;69208;47.502;18.940;2023-08-12T04:51:02;98842.13;;;15.70;80.73
65756;BME280;69208;47.502;18.940;2023-08-12T04:52:05;98842.31;;;15.74;80.86
65756;BME280;69208;47.502;18.940;2023-08-12T04:53:09;98846.78;;;15.73;81.14
65756;BME280;69208;47.502;18.940;2023-08-12T04:54:12;98846.19;;;15.76;81.07
65756;BME280;69208;47.502;18.940;2023-08-12T04:55:15;98842.16;;;15.79;81.02
65756;BME280;69208;47.502;18.940;2023-08-12T04:56:17;98851.66;;;15.80;80.90
65756;BME280;69208;47.502;18.940;2023-08-12T04:57:20;98847.75;;;15.77;81.12
65756;BME280;69208;47.502;18.940;2023-08-12T04:58:23;98841.06;;;15.80;81.28
65756;BME280;69208;47.502;18.940;2023-08-12T04:59:26;98849.78;;;15.80;81.60
65756;BME280;69208;47.502;18.940;2023-08-12T05:00:29;98846.66;;;15.78;82.38
65756;BME280;69208;47.502;18.940;2023-08-12T05:01:32;98850.84;;;15.79;82.11
65756;BME280;69208;47.502;18.940;2023-08-12T05:02:35;98846.81;;;15.82;81.98
65756;BME280;69208;47.502;18.940;2023-08-12T05:03:38;98850.41;;;15.86;81.79
65756;BME280;69208;47.502;18.940;2023-08-12T05:04:41;98843.72;;;15.88;81.85
65756;BME280;69208;47.502;18.940;2023-08-12T05:05:49;98847.91;;;15.89;81.90
65756;BME280;69208;47.502;18.940;2023-08-12T05:06:52;98839.50;;;15.87;81.86
65756;BME280;69208;47.502;18.940;2023-08-12T05:07:54;98852.59;;;15.92;81.93
65756;BME280;69208;47.502;18.940;2023-08-12T05:08:57;98844.94;;;15.91;82.57
65756;BME280;69208;47.502;18.940;2023-08-12T05:10:01;98849.00;;;15.88;82.28
65756;BME280;69208;47.502;18.940;2023-08-12T05:11:03;98839.38;;;15.92;82.35
65756;BME280;69208;47.502;18.940;2023-08-12T05:12:07;98840.28;;;15.97;82.44
65756;BME280;69208;47.502;18.940;2023-08-12T05:13:10;98840.78;;;15.99;82.43
65756;BME280;69208;47.502;18.940;2023-08-12T05:14:12;98841.25;;;16.01;82.87
65756;BME280;69208;47.502;18.940;2023-08-12T05:15:15;98841.87;;;16.06;82.67
65756;BME280;69208;47.502;18.940;2023-08-12T05:16:18;98841.69;;;16.11;82.67
65756;BME280;69208;47.502;18.940;2023-08-12T05:17:21;98835.63;;;16.11;83.38
65756;BME280;69208;47.502;18.940;2023-08-12T05:18:24;98832.38;;;16.14;83.68
65756;BME280;69208;47.502;18.940;2023-08-12T05:19:27;98843.72;;;16.14;83.64
65756;BME280;69208;47.502;18.940;2023-08-12T05:20:29;98838.59;;;16.18;83.42
65756;BME280;69208;47.502;18.940;2023-08-12T05:21:32;98844.47;;;16.24;83.50
65756;BME280;69208;47.502;18.940;2023-08-12T05:22:34;98849.47;;;16.25;83.69
65756;BME280;69208;47.502;18.940;2023-08-12T05:23:37;98850.09;;;16.31;83.38
65756;BME280;69208;47.502;18.940;2023-08-12T05:24:40;98846.81;;;16.34;83.76
65756;BME280;69208;47.502;18.940;2023-08-12T05:25:43;98847.75;;;16.38;83.93
65756;BME280;69208;47.502;18.940;2023-08-12T05:26:48;98845.28;;;16.42;83.85
65756;BME280;69208;47.502;18.940;2023-08-12T05:27:51;98849.59;;;16.46;84.18
65756;BME280;69208;47.502;18.940;2023-08-12T05:28:54;98841.19;;;16.53;84.14
65756;BME280;69208;47.502;18.940;2023-08-12T05:29:56;98849.44;;;16.60;84.36
65756;BME280;69208;47.502;18.940;2023-08-12T05:30:59;98839.78;;;16.64;84.22
65756;BME280;69208;47.502;18.940;2023-08-12T05:32:02;98844.44;;;16.67;84.12
65756;BME280;69208;47.502;18.940;2023-08-12T05:33:05;98849.56;;;16.72;84.17
65756;BME280;69208;47.502;18.940;2023-08-12T05:34:08;98848.63;;;16.77;85.46